sensor_id;sensor_type;location;lat;lon;timestamp;P1;durP1;ratioP1;P2;durP2;ratioP2
29362;SDS011;16349;53.672;10.014;2022-12-16T00:00:14;25.43;;;15.27;;
29362;SDS011;16349;53.672;10.014;2022-12-16T00:02:42;24.77;;;15.50;;
29362;SDS011;16349;53.672;10.014;2022-12-16T00:05:09;21.77;;;14.50;;
29362;SDS011;16349;53.672;10.014;2022-12-16T00:07:36;24.00;;;14.90;;
29362;SDS011;16349;53.672;10.014;2022-12-16T00:10:04;20.50;;;14.47;;
29362;SDS011;16349;53.672;10.014;2022-12-16T00:12:31;26.30;;;15.10;;
29362;SDS011;16349;53.672;10.014;2022-12-16T00:14:58;21.33;;;15.00;;
29362;SDS011;16349;53.672;10.014;2022-12-16T00:17:25;22.97;;;15.13;;
29362;SDS011;16349;53.672;10.014;2022-12-16T00:19:54;22.63;;;15.47;;
29362;SDS011;16349;53.672;10.014;2022-12-16T00:22:21;25.33;;;15.70;;
29362;SDS011;16349;53.672;10.014;2022-12-16T00:24:48;20.77;;;14.37;;
29362;SDS011;16349;53.672;10.014;2022-12-16T00:27:15;29.47;;;14.50;;
29362;SDS011;16349;53.672;10.014;2022-12-16T00:29:42;21.63;;;14.53;;
29362;SDS011;16349;53.672;10.014;2022-12-16T00:32:09;26.97;;;15.00;;
29362;SDS011;16349;53.672;10.014;2022-12-16T00:34:36;24.37;;;15.67;;
29362;SDS011;16349;53.672;10.014;2022-12-16T00:37:04;28.10;;;16.00;;
29362;SDS011;16349;53.672;10.014;2022-12-16T00:39:30;23.77;;;15.20;;
29362;SDS011;16349;53.672;10.014;2022-12-16T00:41:57;22.77;;;15.13;;
29362;SDS011;16349;53.672;10.014;2022-12-16T00:44:24;24.63;;;15.53;;
29362;SDS011;16349;53.672;10.014;2022-12-16T00:46:51;23.60;;;15.67;;
29362;SDS011;16349;53.672;10.014;2022-12-16T00:49:18;29.27;;;14.57;;
29362;SDS011;16349;53.672;10.014;2022-12-16T00:51:46;24.00;;;15.17;;
29362;SDS011;16349;53.672;10.014;2022-12-16T00:54:14;20.90;;;15.17;;
29362;SDS011;16349;53.672;10.014;2022-12-16T00:56:40;27.83;;;16.03;;
29362;SDS011;16349;53.672;10.014;2022-12-16T00:59:07;25.90;;;16.17;;
29362;SDS011;16349;53.672;10.014;2022-12-16T01:01:34;26.23;;;16.33;;
29362;SDS011;16349;53.672;10.014;2022-12-16T01:04:01;25.77;;;15.57;;
29362;SDS011;16349;53.672;10.014;2022-12-16T01:06:28;26.63;;;15.23;;
29362;SDS011;16349;53.672;10.014;2022-12-16T01:08:55;26.60;;;15.27;;
29362;SDS011;16349;53.672;10.014;2022-12-16T01:11:24;22.77;;;15.40;;
29362;SDS011;16349;53.672;10.014;2022-12-16T01:13:51;27.23;;;16.63;;
29362;SDS011;16349;53.672;10.014;2022-12-16T01:16:19;28.53;;;15.50;;
29362;SDS011;16349;53.672;10.014;2022-12-16T01:18:45;24.07;;;16.20;;
29362;SDS011;16349;53.672;10.014;2022-12-16T01:21:13;25.97;;;16.23;;
29362;SDS011;16349;53.672;10.014;2022-12-16T01:23:41;22.73;;;14.20;;
29362;SDS011;16349;53.672;10.014;2022-12-16T01:26:08;26.80;;;16.27;;
29362;SDS011;16349;53.672;10.014;2022-12-16T01:28:41;25.07;;;15.57;;
29362;SDS011;16349;53.672;10.014;2022-12-16T01:31:09;24.00;;;15.93;;
29362;SDS011;16349;53.672;10.014;2022-12-16T01:33:37;22.77;;;15.27;;
29362;SDS011;16349;53.672;10.014;2022-12-16T01:36:05;22.90;;;14.97;;
29362;SDS011;16349;53.672;10.014;2022-12-16T01:38:34;27.53;;;15.63;;
29362;SDS011;16349;53.672;10.014;2022-12-16T01:41:02;22.03;;;14.70;;
29362;SDS011;16349;53.672;10.014;2022-12-16T01:43:30;24.67;;;15.77;;
29362;SDS011;16349;53.672;10.014;2022-12-16T01:46:02;25.53;;;15.87;;
29362;SDS011;16349;53.672;10.014;2022-12-16T01:48:38;21.93;;;15.33;;
29362;SDS011;16349;53.672;10.014;2022-12-16T01:51:08;24.03;;;14.77;;
29362;SDS011;16349;53.672;10.014;2022-12-16T01:53:39;23.00;;;15.37;;
29362;SDS011;16349;53.672;10.014;2022-12-16T01:56:07;22.77;;;15.33;;
29362;SDS011;16349;53.672;10.014;2022-12-16T01:58:39;24.50;;;15.90;;
29362;SDS011;16349;53.672;10.014;2022-12-16T02:01:09;26.10;;;16.03;;
29362;SDS011;16349;53.672;10.014;2022-12-16T02:03:37;25.20;;;15.57;;
29362;SDS011;16349;53.672;10.014;2022-12-16T02:06:04;27.57;;;15.37;;
29362;SDS011;16349;53.672;10.014;2022-12-16T02:08:32;25.63;;;16.17;;
29362;SDS011;16349;53.672;10.014;2022-12-16T02:11:04;24.50;;;15.97;;
29362;SDS011;16349;53.672;10.014;2022-12-16T02:13:39;22.70;;;15.43;;
29362;SDS011;16349;53.672;10.014;2022-12-16T02:16:18;24.10;;;15.60;;
29362;SDS011;16349;53.672;10.014;2022-12-16T02:18:51;26.20;;;15.87;;
29362;SDS011;16349;53.672;10.014;2022-12-16T02:21:39;20.00;;;14.23;;
29362;SDS011;16349;53.672;10.014;2022-12-16T02:24:29;22.03;;;14.00;;
29362;SDS011;16349;53.672;10.014;2022-12-16T02:27:29;25.93;;;15.80;;
29362;SDS011;16349;53.672;10.014;2022-12-16T02:30:21;24.60;;;15.93;;
29362;SDS011;16349;53.672;10.014;2022-12-16T02:33:13;22.27;;;14.33;;
29362;SDS011;16349;53.672;10.014;2022-12-16T02:36:07;22.97;;;15.23;;
29362;SDS011;16349;53.672;10.014;2022-12-16T02:38:45;26.53;;;16.53;;
29362;SDS011;16349;53.672;10.014;2022-12-16T02:41:21;25.63;;;16.17;;
29362;SDS011;16349;53.672;10.014;2022-12-16T02:43:53;23.30;;;16.00;;
29362;SDS011;16349;53.672;10.014;2022-12-16T02:46:25;24.50;;;15.20;;
29362;SDS011;16349;53.672;10.014;2022-12-16T02:48:56;28.50;;;16.10;;
29362;SDS011;16349;53.672;10.014;2022-12-16T02:51:24;25.27;;;16.07;;
29362;SDS011;16349;53.672;10.014;2022-12-16T02:53:52;22.17;;;15.07;;
29362;SDS011;16349;53.672;10.014;2022-12-16T02:56:23;30.57;;;16.27;;
29362;SDS011;16349;53.672;10.014;2022-12-16T02:59:05;22.73;;;15.20;;
29362;SDS011;16349;53.672;10.014;2022-12-16T03:01:44;21.97;;;14.67;;
29362;SDS011;16349;53.672;10.014;2022-12-16T03:04:18;23.23;;;14.57;;
29362;SDS011;16349;53.672;10.014;2022-12-16T03:06:48;23.77;;;15.10;;
29362;SDS011;16349;53.672;10.014;2022-12-16T03:09:17;22.83;;;14.23;;
29362;SDS011;16349;53.672;10.014;2022-12-16T03:11:47;26.90;;;15.60;;
29362;SDS011;16349;53.672;10.014;2022-12-16T03:14:16;21.53;;;14.20;;
29362;SDS011;16349;53.672;10.014;2022-12-16T03:16:46;21.93;;;13.67;;
29362;SDS011;16349;53.672;10.014;2022-12-16T03:19:15;23.50;;;13.73;;
29362;SDS011;16349;53.672;10.014;2022-12-16T03:21:47;23.17;;;14.97;;
29362;SDS011;16349;53.672;10.014;2022-12-16T03:24:22;21.47;;;14.63;;
29362;SDS011;16349;53.672;10.014;2022-12-16T03:26:50;20.17;;;13.57;;
29362;SDS011;16349;53.672;10.014;2022-12-16T03:29:23;22.70;;;14.93;;
29362;SDS011;16349;53.672;10.014;2022-12-16T03:31:55;23.97;;;14.13;;
29362;SDS011;16349;53.672;10.014;2022-12-16T03:34:28;25.00;;;14.50;;
29362;SDS011;16349;53.672;10.014;2022-12-16T03:37:01;21.33;;;13.83;;
29362;SDS011;16349;53.672;10.014;2022-12-16T03:39:30;24.80;;;14.00;;
29362;SDS011;16349;53.672;10.014;2022-12-16T03:42:00;22.03;;;13.80;;
29362;SDS011;16349;53.672;10.014;2022-12-16T03:44:28;22.80;;;14.50;;
29362;SDS011;16349;53.672;10.014;2022-12-16T03:46:57;23.43;;;14.97;;
29362;SDS011;16349;53.672;10.014;2022-12-16T03:49:24;20.33;;;14.33;;
29362;SDS011;16349;53.672;10.014;2022-12-16T03:51:52;21.90;;;14.07;;
29362;SDS011;16349;53.672;10.014;2022-12-16T03:54:20;24.37;;;13.63;;
29362;SDS011;16349;53.672;10.014;2022-12-16T03:56:48;22.70;;;13.80;;
29362;SDS011;16349;53.672;10.014;2022-12-16T03:59:15;21.33;;;13.53;;
29362;SDS011;16349;53.672;10.014;2022-12-16T04:01:41;20.40;;;13.40;;
29362;SDS011;16349;53.672;10.014;2022-12-16T04:04:10;24.13;;;15.13;;
29362;SDS011;16349;53.672;10.014;2022-12-16T04:06:37;24.10;;;15.30;;
29362;SDS011;16349;53.672;10.014;2022-12-16T04:09:04;21.23;;;13.67;;
29362;SDS011;16349;53.672;10.014;2022-12-16T04:11:30;25.13;;;15.50;;
29362;SDS011;16349;53.672;10.014;2022-12-16T04:14:15;23.30;;;14.50;;
29362;SDS011;16349;53.672;10.014;2022-12-16T04:17:00;30.60;;;14.80;;
29362;SDS011;16349;53.672;10.014;2022-12-16T04:19:47;23.60;;;14.70;;
29362;SDS011;16349;53.672;10.014;2022-12-16T04:22:33;21.87;;;13.80;;
29362;SDS011;16349;53.672;10.014;2022-12-16T04:25:21;23.13;;;14.03;;
29362;SDS011;16349;53.672;10.014;2022-12-16T04:27:50;25.93;;;14.53;;
29362;SDS011;16349;53.672;10.014;2022-12-16T04:30:17;23.43;;;15.20;;
29362;SDS011;16349;53.672;10.014;2022-12-16T04:32:46;25.50;;;14.90;;
29362;SDS011;16349;53.672;10.014;2022-12-16T04:35:34;23.83;;;14.10;;
29362;SDS011;16349;53.672;10.014;2022-12-16T04:38:19;23.93;;;14.17;;
29362;SDS011;16349;53.672;10.014;2022-12-16T04:41:03;23.63;;;14.63;;
29362;SDS011;16349;53.672;10.014;2022-12-16T04:43:48;24.90;;;14.50;;
29362;SDS011;16349;53.672;10.014;2022-12-16T04:46:33;21.43;;;13.90;;
29362;SDS011;16349;53.672;10.014;2022-12-16T04:49:18;25.97;;;14.47;;
29362;SDS011;16349;53.672;10.014;2022-12-16T04:52:04;26.90;;;14.60;;
29362;SDS011;16349;53.672;10.014;2022-12-16T04:54:49;23.70;;;13.80;;
29362;SDS011;16349;53.672;10.014;2022-12-16T04:57:34;22.70;;;13.80;;
29362;SDS011;16349;53.672;10.014;2022-12-16T05:00:19;27.67;;;15.13;;
29362;SDS011;16349;53.672;10.014;2022-12-16T05:03:04;25.43;;;14.63;;
29362;SDS011;16349;53.672;10.014;2022-12-16T05:05:48;23.40;;;15.27;;
29362;SDS011;16349;53.672;10.014;2022-12-16T05:08:35;25.43;;;14.90;;
29362;SDS011;16349;53.672;10.014;2022-12-16T05:11:19;23.40;;;13.77;;
29362;SDS011;16349;53.672;10.014;2022-12-16T05:14:04;26.77;;;14.60;;
29362;SDS011;16349;53.672;10.014;2022-12-16T05:16:49;22.73;;;14.93;;
29362;SDS011;16349;53.672;10.014;2022-12-16T05:19:34;29.07;;;15.60;;
29362;SDS011;16349;53.672;10.014;2022-12-16T05:22:19;23.63;;;14.90;;
29362;SDS011;16349;53.672;10.014;2022-12-16T05:25:05;22.33;;;13.73;;
29362;SDS011;16349;53.672;10.014;2022-12-16T05:27:51;26.17;;;15.57;;
29362;SDS011;16349;53.672;10.014;2022-12-16T05:30:36;23.63;;;14.67;;
29362;SDS011;16349;53.672;10.014;2022-12-16T05:33:21;25.73;;;15.77;;
29362;SDS011;16349;53.672;10.014;2022-12-16T05:36:07;25.87;;;14.93;;
29362;SDS011;16349;53.672;10.014;2022-12-16T05:38:52;26.70;;;15.80;;
29362;SDS011;16349;53.672;10.014;2022-12-16T05:41:50;28.83;;;15.77;;
29362;SDS011;16349;53.672;10.014;2022-12-16T05:44:34;29.67;;;16.73;;
29362;SDS011;16349;53.672;10.014;2022-12-16T05:47:19;29.47;;;15.93;;
29362;SDS011;16349;53.672;10.014;2022-12-16T05:50:04;28.07;;;16.00;;
29362;SDS011;16349;53.672;10.014;2022-12-16T05:52:48;29.73;;;16.60;;
29362;SDS011;16349;53.672;10.014;2022-12-16T05:55:33;27.57;;;16.53;;
29362;SDS011;16349;53.672;10.014;2022-12-16T05:58:20;24.53;;;16.57;;
29362;SDS011;16349;53.672;10.014;2022-12-16T06:01:04;26.53;;;16.43;;
29362;SDS011;16349;53.672;10.014;2022-12-16T06:03:49;29.77;;;16.70;;
29362;SDS011;16349;53.672;10.014;2022-12-16T06:06:34;28.57;;;16.60;;
29362;SDS011;16349;53.672;10.014;2022-12-16T06:09:18;33.07;;;18.10;;
29362;SDS011;16349;53.672;10.014;2022-12-16T06:12:03;28.33;;;16.30;;
29362;SDS011;16349;53.672;10.014;2022-12-16T06:14:50;29.27;;;16.23;;
29362;SDS011;16349;53.672;10.014;2022-12-16T06:17:32;26.53;;;16.50;;
29362;SDS011;16349;53.672;10.014;2022-12-16T06:20:16;27.20;;;16.20;;
29362;SDS011;16349;53.672;10.014;2022-12-16T06:23:01;25.37;;;15.50;;
29362;SDS011;16349;53.672;10.014;2022-12-16T06:25:46;26.57;;;15.70;;
29362;SDS011;16349;53.672;10.014;2022-12-16T06:28:31;29.17;;;16.07;;
29362;SDS011;16349;53.672;10.014;2022-12-16T06:31:17;23.97;;;15.53;;
29362;SDS011;16349;53.672;10.014;2022-12-16T06:34:02;27.97;;;16.03;;
29362;SDS011;16349;53.672;10.014;2022-12-16T06:36:47;27.93;;;16.43;;
29362;SDS011;16349;53.672;10.014;2022-12-16T06:39:32;23.40;;;16.23;;
29362;SDS011;16349;53.672;10.014;2022-12-16T06:42:17;25.47;;;15.87;;
29362;SDS011;16349;53.672;10.014;2022-12-16T06:45:02;30.20;;;17.50;;
29362;SDS011;16349;53.672;10.014;2022-12-16T06:47:48;26.83;;;16.17;;
29362;SDS011;16349;53.672;10.014;2022-12-16T06:50:33;26.00;;;15.23;;
29362;SDS011;16349;53.672;10.014;2022-12-16T06:53:29;21.57;;;14.70;;
29362;SDS011;16349;53.672;10.014;2022-12-16T06:56:13;25.33;;;14.77;;
29362;SDS011;16349;53.672;10.014;2022-12-16T06:58:58;27.97;;;15.60;;
29362;SDS011;16349;53.672;10.014;2022-12-16T07:01:43;23.97;;;16.00;;
29362;SDS011;16349;53.672;10.014;2022-12-16T07:04:29;24.53;;;16.10;;
29362;SDS011;16349;53.672;10.014;2022-12-16T07:07:14;26.53;;;15.77;;
29362;SDS011;16349;53.672;10.014;2022-12-16T07:10:13;24.83;;;15.13;;
29362;SDS011;16349;53.672;10.014;2022-12-16T07:12:58;23.27;;;14.70;;
29362;SDS011;16349;53.672;10.014;2022-12-16T07:15:58;27.10;;;15.30;;
29362;SDS011;16349;53.672;10.014;2022-12-16T07:18:42;28.43;;;16.20;;
29362;SDS011;16349;53.672;10.014;2022-12-16T07:21:28;24.80;;;14.70;;
29362;SDS011;16349;53.672;10.014;2022-12-16T07:24:13;24.47;;;15.40;;
29362;SDS011;16349;53.672;10.014;2022-12-16T07:27:12;31.17;;;16.07;;
29362;SDS011;16349;53.672;10.014;2022-12-16T07:29:58;29.97;;;16.53;;
29362;SDS011;16349;53.672;10.014;2022-12-16T07:32:43;25.97;;;16.80;;
29362;SDS011;16349;53.672;10.014;2022-12-16T07:35:28;26.10;;;15.73;;
29362;SDS011;16349;53.672;10.014;2022-12-16T07:38:14;26.57;;;15.67;;
29362;SDS011;16349;53.672;10.014;2022-12-16T07:41:00;28.63;;;16.27;;
29362;SDS011;16349;53.672;10.014;2022-12-16T07:43:44;28.80;;;16.17;;
29362;SDS011;16349;53.672;10.014;2022-12-16T07:46:29;27.90;;;15.87;;
29362;SDS011;16349;53.672;10.014;2022-12-16T07:49:13;28.40;;;16.97;;
29362;SDS011;16349;53.672;10.014;2022-12-16T07:51:58;29.73;;;16.27;;
29362;SDS011;16349;53.672;10.014;2022-12-16T07:54:44;29.10;;;15.87;;
29362;SDS011;16349;53.672;10.014;2022-12-16T07:57:28;28.53;;;16.43;;
29362;SDS011;16349;53.672;10.014;2022-12-16T08:00:13;30.97;;;16.60;;
29362;SDS011;16349;53.672;10.014;2022-12-16T08:02:58;28.47;;;16.80;;
29362;SDS011;16349;53.672;10.014;2022-12-16T08:05:42;26.37;;;17.00;;
29362;SDS011;16349;53.672;10.014;2022-12-16T08:08:27;29.60;;;16.33;;
29362;SDS011;16349;53.672;10.014;2022-12-16T08:11:21;28.37;;;17.43;;
29362;SDS011;16349;53.672;10.014;2022-12-16T08:14:17;26.07;;;17.27;;
29362;SDS011;16349;53.672;10.014;2022-12-16T08:17:02;31.60;;;16.43;;
29362;SDS011;16349;53.672;10.014;2022-12-16T08:19:46;29.50;;;17.87;;
29362;SDS011;16349;53.672;10.014;2022-12-16T08:22:31;27.40;;;16.83;;
29362;SDS011;16349;53.672;10.014;2022-12-16T08:25:16;31.27;;;17.13;;
29362;SDS011;16349;53.672;10.014;2022-12-16T08:28:02;30.37;;;18.33;;
29362;SDS011;16349;53.672;10.014;2022-12-16T08:30:48;30.17;;;17.17;;
29362;SDS011;16349;53.672;10.014;2022-12-16T08:33:33;32.63;;;18.03;;
29362;SDS011;16349;53.672;10.014;2022-12-16T08:36:18;29.80;;;18.00;;
29362;SDS011;16349;53.672;10.014;2022-12-16T08:39:02;30.50;;;17.83;;
29362;SDS011;16349;53.672;10.014;2022-12-16T08:41:47;30.60;;;17.80;;
29362;SDS011;16349;53.672;10.014;2022-12-16T08:44:33;31.23;;;17.47;;
29362;SDS011;16349;53.672;10.014;2022-12-16T08:47:17;31.20;;;18.87;;
29362;SDS011;16349;53.672;10.014;2022-12-16T08:50:02;29.63;;;18.90;;
29362;SDS011;16349;53.672;10.014;2022-12-16T08:52:44;28.07;;;17.60;;
29362;SDS011;16349;53.672;10.014;2022-12-16T08:55:29;33.40;;;19.83;;
29362;SDS011;16349;53.672;10.014;2022-12-16T08:58:13;33.23;;;20.07;;
29362;SDS011;16349;53.672;10.014;2022-12-16T09:01:00;30.13;;;18.83;;
29362;SDS011;16349;53.672;10.014;2022-12-16T09:03:44;36.07;;;20.00;;
29362;SDS011;16349;53.672;10.014;2022-12-16T09:06:28;31.63;;;19.37;;
29362;SDS011;16349;53.672;10.014;2022-12-16T09:09:13;28.87;;;18.60;;
29362;SDS011;16349;53.672;10.014;2022-12-16T09:11:57;33.33;;;19.20;;
29362;SDS011;16349;53.672;10.014;2022-12-16T09:14:42;33.30;;;21.40;;
29362;SDS011;16349;53.672;10.014;2022-12-16T09:17:28;32.47;;;20.47;;
29362;SDS011;16349;53.672;10.014;2022-12-16T09:20:13;35.20;;;20.03;;
29362;SDS011;16349;53.672;10.014;2022-12-16T09:23:00;34.53;;;19.63;;
29362;SDS011;16349;53.672;10.014;2022-12-16T09:25:44;31.47;;;19.33;;
29362;SDS011;16349;53.672;10.014;2022-12-16T09:28:29;36.43;;;20.53;;
29362;SDS011;16349;53.672;10.014;2022-12-16T09:31:14;33.97;;;19.20;;
29362;SDS011;16349;53.672;10.014;2022-12-16T09:34:00;32.63;;;20.33;;
29362;SDS011;16349;53.672;10.014;2022-12-16T09:36:44;30.73;;;19.07;;
29362;SDS011;16349;53.672;10.014;2022-12-16T09:39:29;32.23;;;19.43;;
29362;SDS011;16349;53.672;10.014;2022-12-16T09:42:16;35.87;;;20.43;;
29362;SDS011;16349;53.672;10.014;2022-12-16T09:45:10;34.77;;;21.10;;
29362;SDS011;16349;53.672;10.014;2022-12-16T09:48:09;32.73;;;21.30;;
29362;SDS011;16349;53.672;10.014;2022-12-16T09:51:00;35.87;;;20.03;;
29362;SDS011;16349;53.672;10.014;2022-12-16T09:53:47;32.07;;;19.93;;
29362;SDS011;16349;53.672;10.014;2022-12-16T09:56:34;33.50;;;19.93;;
29362;SDS011;16349;53.672;10.014;2022-12-16T09:59:20;33.40;;;19.57;;
29362;SDS011;16349;53.672;10.014;2022-12-16T10:02:11;34.93;;;20.23;;
29362;SDS011;16349;53.672;10.014;2022-12-16T10:04:57;33.37;;;20.47;;
29362;SDS011;16349;53.672;10.014;2022-12-16T10:07:46;33.23;;;20.20;;
29362;SDS011;16349;53.672;10.014;2022-12-16T10:10:37;34.73;;;19.80;;
29362;SDS011;16349;53.672;10.014;2022-12-16T10:13:32;36.37;;;20.30;;
29362;SDS011;16349;53.672;10.014;2022-12-16T10:16:20;40.23;;;20.60;;
29362;SDS011;16349;53.672;10.014;2022-12-16T10:19:12;33.87;;;21.00;;
29362;SDS011;16349;53.672;10.014;2022-12-16T10:22:16;35.03;;;21.63;;
29362;SDS011;16349;53.672;10.014;2022-12-16T10:25:19;30.43;;;20.23;;
29362;SDS011;16349;53.672;10.014;2022-12-16T10:28:10;34.17;;;20.60;;
29362;SDS011;16349;53.672;10.014;2022-12-16T10:30:58;31.10;;;19.00;;
29362;SDS011;16349;53.672;10.014;2022-12-16T10:33:44;35.40;;;20.67;;
29362;SDS011;16349;53.672;10.014;2022-12-16T10:36:32;36.20;;;21.37;;
29362;SDS011;16349;53.672;10.014;2022-12-16T10:39:21;36.47;;;20.37;;
29362;SDS011;16349;53.672;10.014;2022-12-16T10:42:14;28.13;;;19.87;;
29362;SDS011;16349;53.672;10.014;2022-12-16T10:45:03;39.20;;;22.57;;
29362;SDS011;16349;53.672;10.014;2022-12-16T10:47:53;33.27;;;20.57;;
29362;SDS011;16349;53.672;10.014;2022-12-16T10:50:37;31.93;;;20.73;;
29362;SDS011;16349;53.672;10.014;2022-12-16T10:53:24;36.50;;;19.97;;
29362;SDS011;16349;53.672;10.014;2022-12-16T10:56:13;39.57;;;22.27;;
29362;SDS011;16349;53.672;10.014;2022-12-16T10:59:09;32.57;;;21.10;;
29362;SDS011;16349;53.672;10.014;2022-12-16T11:01:55;37.27;;;21.77;;
29362;SDS011;16349;53.672;10.014;2022-12-16T11:04:41;31.43;;;21.50;;
29362;SDS011;16349;53.672;10.014;2022-12-16T11:07:27;33.90;;;20.30;;
29362;SDS011;16349;53.672;10.014;2022-12-16T11:10:27;37.57;;;22.10;;
29362;SDS011;16349;53.672;10.014;2022-12-16T11:13:18;33.47;;;21.97;;
29362;SDS011;16349;53.672;10.014;2022-12-16T11:16:07;35.20;;;22.10;;
29362;SDS011;16349;53.672;10.014;2022-12-16T11:18:55;34.90;;;21.13;;
29362;SDS011;16349;53.672;10.014;2022-12-16T11:21:39;34.10;;;20.60;;
29362;SDS011;16349;53.672;10.014;2022-12-16T11:24:24;33.60;;;21.97;;
29362;SDS011;16349;53.672;10.014;2022-12-16T11:27:13;34.30;;;22.27;;
29362;SDS011;16349;53.672;10.014;2022-12-16T11:30:00;41.20;;;22.57;;
29362;SDS011;16349;53.672;10.014;2022-12-16T11:32:47;37.20;;;21.23;;
29362;SDS011;16349;53.672;10.014;2022-12-16T11:35:40;43.10;;;22.53;;
29362;SDS011;16349;53.672;10.014;2022-12-16T11:38:31;44.90;;;22.77;;
29362;SDS011;16349;53.672;10.014;2022-12-16T11:41:29;36.67;;;22.27;;
29362;SDS011;16349;53.672;10.014;2022-12-16T11:44:18;37.07;;;21.47;;
29362;SDS011;16349;53.672;10.014;2022-12-16T11:47:08;37.03;;;22.23;;
29362;SDS011;16349;53.672;10.014;2022-12-16T11:49:59;34.47;;;22.53;;
29362;SDS011;16349;53.672;10.014;2022-12-16T11:52:48;40.83;;;24.23;;
29362;SDS011;16349;53.672;10.014;2022-12-16T11:55:38;40.10;;;22.80;;
29362;SDS011;16349;53.672;10.014;2022-12-16T11:58:28;38.97;;;21.97;;
29362;SDS011;16349;53.672;10.014;2022-12-16T12:01:21;36.70;;;22.70;;
29362;SDS011;16349;53.672;10.014;2022-12-16T12:04:10;34.53;;;22.23;;
29362;SDS011;16349;53.672;10.014;2022-12-16T12:06:59;32.67;;;21.37;;
29362;SDS011;16349;53.672;10.014;2022-12-16T12:10:05;33.07;;;22.20;;
29362;SDS011;16349;53.672;10.014;2022-12-16T12:12:57;38.83;;;22.70;;
29362;SDS011;16349;53.672;10.014;2022-12-16T12:15:49;39.47;;;23.30;;
29362;SDS011;16349;53.672;10.014;2022-12-16T12:18:43;35.23;;;22.10;;
29362;SDS011;16349;53.672;10.014;2022-12-16T12:21:30;36.10;;;22.17;;
29362;SDS011;16349;53.672;10.014;2022-12-16T12:24:26;37.13;;;22.23;;
29362;SDS011;16349;53.672;10.014;2022-12-16T12:27:17;39.03;;;23.47;;
29362;SDS011;16349;53.672;10.014;2022-12-16T12:30:09;34.07;;;22.00;;
29362;SDS011;16349;53.672;10.014;2022-12-16T12:33:04;37.77;;;23.03;;
29362;SDS011;16349;53.672;10.014;2022-12-16T12:36:00;38.40;;;21.93;;
29362;SDS011;16349;53.672;10.014;2022-12-16T12:38:59;41.27;;;23.63;;
29362;SDS011;16349;53.672;10.014;2022-12-16T12:41:59;34.90;;;22.80;;
29362;SDS011;16349;53.672;10.014;2022-12-16T12:44:57;39.37;;;23.13;;
29362;SDS011;16349;53.672;10.014;2022-12-16T12:47:59;36.60;;;21.67;;
29362;SDS011;16349;53.672;10.014;2022-12-16T12:50:53;34.53;;;21.43;;
29362;SDS011;16349;53.672;10.014;2022-12-16T12:53:44;41.70;;;23.07;;
29362;SDS011;16349;53.672;10.014;2022-12-16T12:56:38;37.13;;;22.43;;
29362;SDS011;16349;53.672;10.014;2022-12-16T12:59:34;38.77;;;23.13;;
29362;SDS011;16349;53.672;10.014;2022-12-16T13:02:38;35.63;;;23.70;;
29362;SDS011;16349;53.672;10.014;2022-12-16T13:05:27;35.33;;;22.40;;
29362;SDS011;16349;53.672;10.014;2022-12-16T13:08:31;37.10;;;22.33;;
29362;SDS011;16349;53.672;10.014;2022-12-16T13:11:33;34.80;;;22.10;;
29362;SDS011;16349;53.672;10.014;2022-12-16T13:20:56;35.00;;;20.17;;
29362;SDS011;16349;53.672;10.014;2022-12-16T13:23:41;37.47;;;22.93;;
29362;SDS011;16349;53.672;10.014;2022-12-16T13:26:27;37.67;;;22.27;;
29362;SDS011;16349;53.672;10.014;2022-12-16T13:29:16;32.20;;;21.83;;
29362;SDS011;16349;53.672;10.014;2022-12-16T13:32:17;38.13;;;22.57;;
29362;SDS011;16349;53.672;10.014;2022-12-16T13:35:13;36.93;;;21.97;;
29362;SDS011;16349;53.672;10.014;2022-12-16T13:38:00;36.30;;;21.97;;
29362;SDS011;16349;53.672;10.014;2022-12-16T13:40:48;38.80;;;23.37;;
29362;SDS011;16349;53.672;10.014;2022-12-16T13:43:44;31.93;;;20.60;;
29362;SDS011;16349;53.672;10.014;2022-12-16T13:46:40;36.97;;;22.10;;
29362;SDS011;16349;53.672;10.014;2022-12-16T13:49:44;35.57;;;21.17;;
29362;SDS011;16349;53.672;10.014;2022-12-16T13:55:32;33.53;;;22.60;;
29362;SDS011;16349;53.672;10.014;2022-12-16T13:58:25;33.03;;;21.93;;
29362;SDS011;16349;53.672;10.014;2022-12-16T14:01:17;38.97;;;22.50;;
29362;SDS011;16349;53.672;10.014;2022-12-16T14:04:07;32.17;;;21.67;;
29362;SDS011;16349;53.672;10.014;2022-12-16T14:06:53;34.47;;;21.03;;
29362;SDS011;16349;53.672;10.014;2022-12-16T14:09:41;37.10;;;21.50;;
29362;SDS011;16349;53.672;10.014;2022-12-16T14:12:43;34.00;;;21.87;;
29362;SDS011;16349;53.672;10.014;2022-12-16T14:15:38;34.57;;;21.77;;
29362;SDS011;16349;53.672;10.014;2022-12-16T14:18:35;38.67;;;22.27;;
29362;SDS011;16349;53.672;10.014;2022-12-16T14:21:27;37.80;;;22.20;;
29362;SDS011;16349;53.672;10.014;2022-12-16T14:24:20;38.83;;;21.73;;
29362;SDS011;16349;53.672;10.014;2022-12-16T14:27:11;31.40;;;20.33;;
29362;SDS011;16349;53.672;10.014;2022-12-16T14:29:57;34.77;;;20.90;;
29362;SDS011;16349;53.672;10.014;2022-12-16T14:32:42;33.30;;;21.83;;
29362;SDS011;16349;53.672;10.014;2022-12-16T14:35:27;37.93;;;22.87;;
29362;SDS011;16349;53.672;10.014;2022-12-16T14:38:19;31.03;;;21.17;;
29362;SDS011;16349;53.672;10.014;2022-12-16T14:41:08;37.30;;;21.33;;
29362;SDS011;16349;53.672;10.014;2022-12-16T14:43:54;35.97;;;22.03;;
29362;SDS011;16349;53.672;10.014;2022-12-16T14:46:38;37.77;;;22.67;;
29362;SDS011;16349;53.672;10.014;2022-12-16T14:49:24;35.23;;;21.53;;
29362;SDS011;16349;53.672;10.014;2022-12-16T14:52:17;33.07;;;21.60;;
29362;SDS011;16349;53.672;10.014;2022-12-16T14:55:10;40.83;;;21.43;;
29362;SDS011;16349;53.672;10.014;2022-12-16T14:58:02;40.23;;;22.40;;
29362;SDS011;16349;53.672;10.014;2022-12-16T15:00:48;36.73;;;22.43;;
29362;SDS011;16349;53.672;10.014;2022-12-16T15:03:37;38.67;;;21.43;;
29362;SDS011;16349;53.672;10.014;2022-12-16T15:06:24;39.40;;;23.13;;
29362;SDS011;16349;53.672;10.014;2022-12-16T15:09:13;37.13;;;21.90;;
29362;SDS011;16349;53.672;10.014;2022-12-16T15:12:04;34.27;;;22.13;;
29362;SDS011;16349;53.672;10.014;2022-12-16T15:14:51;40.27;;;22.67;;
29362;SDS011;16349;53.672;10.014;2022-12-16T15:17:41;36.67;;;22.60;;
29362;SDS011;16349;53.672;10.014;2022-12-16T15:20:31;36.97;;;23.20;;
29362;SDS011;16349;53.672;10.014;2022-12-16T15:23:20;32.13;;;22.93;;
29362;SDS011;16349;53.672;10.014;2022-12-16T15:26:29;36.83;;;22.90;;
29362;SDS011;16349;53.672;10.014;2022-12-16T15:29:28;43.43;;;22.93;;
29362;SDS011;16349;53.672;10.014;2022-12-16T15:32:28;37.13;;;23.50;;
29362;SDS011;16349;53.672;10.014;2022-12-16T15:35:26;41.60;;;23.30;;
29362;SDS011;16349;53.672;10.014;2022-12-16T15:38:10;35.57;;;22.67;;
29362;SDS011;16349;53.672;10.014;2022-12-16T15:40:55;35.07;;;22.40;;
29362;SDS011;16349;53.672;10.014;2022-12-16T15:43:40;37.50;;;23.17;;
29362;SDS011;16349;53.672;10.014;2022-12-16T15:46:28;40.03;;;24.70;;
29362;SDS011;16349;53.672;10.014;2022-12-16T15:49:18;37.83;;;22.30;;